Time;durP1;ratioP1;P1;durP2;ratioP2;P2;SDS_P1;SDS_P2;PMS_P1;PMS_P2;Temp;Humidity;BMP_temperature;BMP_pressure;BME280_temperature;BME280_humidity;BME280_pressure;Samples;Min_cycle;Max_cycle;Signal;HPM_P1;HPM_P2
2023/04/02 00:02:26;;;;;;;;;;;19.30;99.90;;;;;;5089508;28;20373;-77
2023/04/02 00:05:16;;;;;;;;;;;19.40;99.90;;;;;;5082704;28;19919;-68
2023/04/02 00:07:47;;;;;;;;;;;19.40;99.90;;;;;;5044364;28;20309;-75
2023/04/02 00:10:26;;;;;;;;;;;19.50;99.90;;;;;;5098057;28;19922;-80
2023/04/02 00:13:04;;;;;;;;;;;19.60;99.90;;;;;;5080575;28;20357;-81
2023/04/02 00:15:30;;;;;;;;;;;19.60;99.90;;;;;;5080386;28;19912;-78
2023/04/02 00:17:58;;;;;;;;;;;19.70;99.90;;;;;;5060115;28;19908;-79
2023/04/02 00:20:26;;;;;;;;;;;19.70;99.90;;;;;;5085957;28;20331;-72
2023/04/02 00:22:55;;;;;;;;;;;19.80;99.90;;;;;;5096863;28;19915;-71
2023/04/02 00:25:21;;;;;;;;;;;19.70;99.90;;;;;;5098013;28;19908;-74
2023/04/02 00:27:48;;;;;;;;;;;19.80;99.90;;;;;;5095226;28;19915;-67
2023/04/02 00:30:15;;;;;;;;;;;19.80;99.90;;;;;;5083906;28;19916;-80
2023/04/02 00:32:41;;;;;;;;;;;19.80;99.90;;;;;;5089473;28;19955;-68
2023/04/02 00:35:16;;;;;;;;;;;19.80;99.90;;;;;;5099582;28;19953;-75
2023/04/02 00:37:43;;;;;;;;;;;19.60;99.90;;;;;;5097614;28;19933;-70
2023/04/02 00:40:19;;;;;;;;;;;19.60;99.90;;;;;;5094165;28;19960;-67
2023/04/02 00:42:47;;;;;;;;;;;19.50;99.90;;;;;;5079128;28;19912;-67
2023/04/02 00:45:21;;;;;;;;;;;19.50;99.90;;;;;;5097772;28;20249;-65
2023/04/02 00:47:51;;;;;;;;;;;19.50;99.90;;;;;;5096743;28;21734;-68
2023/04/02 00:50:21;;;;;;;;;;;19.60;99.90;;;;;;5098065;28;19911;-78
2023/04/02 00:52:50;;;;;;;;;;;19.80;99.90;;;;;;5097401;28;19908;-74
2023/04/02 00:55:32;;;;;;;;;;;20.00;99.90;;;;;;5099085;28;20570;-72
2023/04/02 00:57:59;;;;;;;;;;;20.10;99.90;;;;;;5087543;28;20319;-70
2023/04/02 01:00:31;;;;;;;;;;;20.30;99.90;;;;;;5079763;28;19912;-66
2023/04/02 01:03:15;;;;;;;;;;;20.40;99.90;;;;;;5076947;28;19908;-71
2023/04/02 01:05:44;;;;;;;;;;;20.50;99.90;;;;;;5078079;28;20367;-66
2023/04/02 01:08:24;;;;;;;;;;;20.40;99.90;;;;;;5077949;28;19920;-68
2023/04/02 01:11:00;;;;;;;;;;;20.40;99.90;;;;;;5087903;28;19914;-66
2023/04/02 01:13:29;;;;;;;;;;;20.40;99.90;;;;;;5099376;28;19950;-65
2023/04/02 01:16:14;;;;;;;;;;;20.30;99.90;;;;;;5097598;28;20360;-68
2023/04/02 01:18:52;;;;;;;;;;;20.30;99.90;;;;;;5091095;28;19955;-72
2023/04/02 01:21:42;;;;;;;;;;;20.30;99.90;;;;;;5091157;28;19919;-72
2023/04/02 01:24:11;;;;;;;;;;;20.20;99.90;;;;;;5056986;28;19916;-71
2023/04/02 01:26:56;;;;;;;;;;;20.00;99.90;;;;;;5077987;28;20009;-76
2023/04/02 01:29:26;;;;;;;;;;;19.90;99.90;;;;;;5077341;28;19955;-76
2023/04/02 01:31:54;;;;;;;;;;;19.80;99.90;;;;;;5096064;28;19908;-70
2023/04/02 01:34:22;;;;;;;;;;;19.80;99.90;;;;;;5098583;28;20310;-68
2023/04/02 01:37:07;;;;;;;;;;;19.60;99.90;;;;;;5098174;28;19915;-68
2023/04/02 01:39:46;;;;;;;;;;;19.60;99.90;;;;;;5098260;28;19939;-68
2023/04/02 01:42:16;;;;;;;;;;;19.60;99.90;;;;;;5079999;28;19916;-72
2023/04/02 01:44:50;;;;;;;;;;;19.60;99.90;;;;;;5097904;28;19956;-71
2023/04/02 01:47:18;;;;;;;;;;;19.60;99.90;;;;;;5097382;28;20014;-70
2023/04/02 01:49:45;;;;;;;;;;;19.60;99.90;;;;;;5094962;28;19968;-73
2023/04/02 01:52:16;;;;;;;;;;;19.60;99.90;;;;;;5088029;28;19985;-69
2023/04/02 01:54:43;;;;;;;;;;;19.70;99.90;;;;;;5080099;28;19908;-72
2023/04/02 01:57:10;;;;;;;;;;;19.70;99.90;;;;;;5095415;28;19916;-73
2023/04/02 01:59:37;;;;;;;;;;;19.90;99.90;;;;;;5098349;28;19911;-67
2023/04/02 02:02:10;;;;;;;;;;;20.00;99.90;;;;;;5096988;28;20136;-65
2023/04/02 02:04:36;;;;;;;;;;;20.20;99.90;;;;;;5098237;28;19907;-67
2023/04/02 02:07:04;;;;;;;;;;;20.30;99.90;;;;;;5097137;28;19912;-67
2023/04/02 02:09:33;;;;;;;;;;;20.40;99.90;;;;;;5098460;28;19911;-68
2023/04/02 02:12:01;;;;;;;;;;;20.50;99.90;;;;;;5095815;28;19919;-67
2023/04/02 02:14:29;;;;;;;;;;;20.50;99.90;;;;;;5098054;28;19908;-67
2023/04/02 02:16:58;;;;;;;;;;;20.50;99.90;;;;;;5098158;28;19914;-73
2023/04/02 02:19:31;;;;;;;;;;;20.50;99.90;;;;;;5082567;28;19912;-72
2023/04/02 02:22:18;;;;;;;;;;;20.60;99.90;;;;;;5080447;28;19908;-67
2023/04/02 02:24:45;;;;;;;;;;;20.90;99.90;;;;;;5081628;28;19912;-72
2023/04/02 02:27:30;;;;;;;;;;;21.10;99.90;;;;;;5077538;28;19916;-76
2023/04/02 02:29:59;;;;;;;;;;;21.40;99.90;;;;;;5081319;28;19912;-68
2023/04/02 02:32:30;;;;;;;;;;;21.90;99.90;;;;;;5086933;28;20280;-75
2023/04/02 02:35:17;;;;;;;;;;;22.30;99.90;;;;;;5083418;28;19908;-67
2023/04/02 02:37:46;;;;;;;;;;;22.80;99.90;;;;;;5081996;28;20335;-67
2023/04/02 02:40:20;;;;;;;;;;;23.50;99.90;;;;;;5081132;28;20253;-65
2023/04/02 02:42:49;;;;;;;;;;;24.10;99.90;;;;;;5078308;28;20311;-76
2023/04/02 02:45:18;;;;;;;;;;;24.30;99.90;;;;;;5077519;28;20425;-69
2023/04/02 02:47:45;;;;;;;;;;;24.40;99.90;;;;;;5079776;28;19917;-64
2023/04/02 02:50:17;;;;;;;;;;;24.00;99.90;;;;;;5085767;28;19915;-65
2023/04/02 02:52:45;;;;;;;;;;;23.80;99.90;;;;;;5087264;28;19927;-78
2023/04/02 02:55:15;;;;;;;;;;;23.60;99.90;;;;;;5083395;28;19912;-75
2023/04/02 02:57:46;;;;;;;;;;;23.40;99.90;;;;;;5102872;28;19908;-75
2023/04/02 03:00:14;;;;;;;;;;;23.00;99.90;;;;;;5112035;28;19908;-67
2023/04/02 03:02:42;;;;;;;;;;;22.80;99.90;;;;;;5109408;28;19907;-65
2023/04/02 03:05:09;;;;;;;;;;;22.40;99.90;;;;;;5114760;28;19911;-67
2023/04/02 03:07:36;;;;;;;;;;;21.90;99.90;;;;;;5112350;28;20597;-68
2023/04/02 03:10:18;;;;;;;;;;;21.10;99.90;;;;;;5105670;28;19912;-70
2023/04/02 03:12:58;;;;;;;;;;;20.30;99.90;;;;;;5108497;28;19907;-69
2023/04/02 03:16:00;;;;;;;;;;;19.70;99.90;;;;;;5114187;28;19907;-70
2023/04/02 03:18:32;;;;;;;;;;;19.20;99.90;;;;;;5023426;28;20019;-77
2023/04/02 03:21:02;;;;;;;;;;;18.60;99.90;;;;;;5091471;28;20028;-73
2023/04/02 03:23:29;;;;;;;;;;;18.30;99.90;;;;;;5101540;28;19915;-79
2023/04/02 03:26:02;;;;;;;;;;;18.30;99.90;;;;;;5066345;28;19912;-76
2023/04/02 03:28:31;;;;;;;;;;;18.30;99.90;;;;;;5079582;28;19973;-75
2023/04/02 03:30:58;;;;;;;;;;;18.30;99.90;;;;;;5091863;28;19995;-69
2023/04/02 03:33:29;;;;;;;;;;;18.40;99.90;;;;;;5100306;28;19908;-75
2023/04/02 03:36:05;;;;;;;;;;;18.40;99.90;;;;;;5096841;28;19990;-76
2023/04/02 03:38:36;;;;;;;;;;;18.40;99.90;;;;;;5080162;28;19916;-71
2023/04/02 03:41:03;;;;;;;;;;;18.40;99.90;;;;;;5093504;28;19920;-76
2023/04/02 03:43:33;;;;;;;;;;;18.50;99.90;;;;;;5099401;28;19989;-70
2023/04/02 03:46:07;;;;;;;;;;;18.60;99.90;;;;;;5082623;28;19918;-73
2023/04/02 03:48:38;;;;;;;;;;;18.70;99.90;;;;;;5083155;28;20015;-74
2023/04/02 03:51:05;;;;;;;;;;;18.60;99.90;;;;;;5085289;28;19920;-73
2023/04/02 03:53:32;;;;;;;;;;;18.40;99.90;;;;;;5079325;28;20026;-74
2023/04/02 03:56:00;;;;;;;;;;;18.20;99.90;;;;;;5092738;28;20387;-68
2023/04/02 03:58:31;;;;;;;;;;;18.00;99.90;;;;;;5079542;28;19916;-75
2023/04/02 04:01:05;;;;;;;;;;;18.00;99.90;;;;;;5091484;28;19977;-69
2023/04/02 04:03:45;;;;;;;;;;;18.10;99.90;;;;;;5098218;28;19912;-67
2023/04/02 04:06:29;;;;;;;;;;;18.10;99.90;;;;;;5091289;28;20376;-75
2023/04/02 04:08:59;;;;;;;;;;;18.20;99.90;;;;;;5099217;28;19924;-76
2023/04/02 04:11:31;;;;;;;;;;;18.40;99.90;;;;;;5099734;28;19908;-69
2023/04/02 04:14:21;;;;;;;;;;;18.60;99.90;;;;;;5099470;28;19961;-74
2023/04/02 04:16:52;;;;;;;;;;;18.80;99.90;;;;;;5091142;28;19908;-77
2023/04/02 04:19:23;;;;;;;;;;;19.00;99.90;;;;;;5100089;28;19988;-69
2023/04/02 04:21:55;;;;;;;;;;;19.50;99.90;;;;;;5080898;28;20006;-72
2023/04/02 04:24:23;;;;;;;;;;;19.90;99.90;;;;;;5079613;28;20422;-65
2023/04/02 04:26:53;;;;;;;;;;;20.10;99.90;;;;;;5077908;28;19965;-65
2023/04/02 04:29:29;;;;;;;;;;;20.40;99.90;;;;;;5080148;28;19920;-64
2023/04/02 04:31:57;;;;;;;;;;;20.70;99.90;;;;;;5098367;28;19973;-63
2023/04/02 04:34:41;;;;;;;;;;;21.00;99.90;;;;;;5098465;28;19912;-65
2023/04/02 04:37:20;;;;;;;;;;;21.20;99.90;;;;;;5089621;28;20026;-67
2023/04/02 04:39:50;;;;;;;;;;;20.70;99.90;;;;;;5098396;28;19919;-73
2023/04/02 04:42:26;;;;;;;;;;;20.30;99.90;;;;;;5082585;28;19908;-68
2023/04/02 04:44:58;;;;;;;;;;;19.90;99.90;;;;;;5091774;28;20416;-71
2023/04/02 04:47:45;;;;;;;;;;;19.40;99.90;;;;;;5095316;28;19920;-76
2023/04/02 04:50:32;;;;;;;;;;;19.20;99.90;;;;;;5089057;28;19950;-76
2023/04/02 04:53:04;;;;;;;;;;;19.10;99.90;;;;;;5092065;28;19920;-78
2023/04/02 04:55:43;;;;;;;;;;;18.80;99.90;;;;;;5079193;28;19959;-71
2023/04/02 04:58:22;;;;;;;;;;;18.70;99.90;;;;;;5082138;28;19927;-78
2023/04/02 05:01:02;;;;;;;;;;;18.60;99.90;;;;;;5097693;28;19991;-72
2023/04/02 05:03:38;;;;;;;;;;;18.40;99.90;;;;;;5100310;28;20058;-68
2023/04/02 05:06:10;;;;;;;;;;;18.30;99.90;;;;;;5082125;28;19918;-74
2023/04/02 05:08:40;;;;;;;;;;;18.30;99.90;;;;;;5066488;28;19924;-67
2023/04/02 05:11:18;;;;;;;;;;;18.20;99.90;;;;;;5093264;28;19911;-70
2023/04/02 05:13:57;;;;;;;;;;;18.20;99.90;;;;;;5094709;27;19919;-67
2023/04/02 05:16:32;;;;;;;;;;;18.30;99.90;;;;;;5095690;28;19995;-66
2023/04/02 05:18:59;;;;;;;;;;;18.30;99.90;;;;;;5076619;28;20019;-69
2023/04/02 05:22:01;;;;;;;;;;;18.40;99.90;;;;;;5079923;28;19912;-68
2023/04/02 05:24:34;;;;;;;;;;;18.70;99.90;;;;;;5029242;28;19999;-69
2023/04/02 05:27:38;;;;;;;;;;;18.80;99.90;;;;;;5082403;28;19966;-70
2023/04/02 05:30:09;;;;;;;;;;;19.00;99.90;;;;;;5077416;28;19993;-69
2023/04/02 05:32:42;;;;;;;;;;;19.20;99.90;;;;;;5064732;28;19916;-66
2023/04/02 05:35:19;;;;;;;;;;;19.30;99.90;;;;;;5079531;28;19923;-68
2023/04/02 05:37:46;;;;;;;;;;;19.30;99.90;;;;;;5077776;28;20414;-67
2023/04/02 05:40:23;;;;;;;;;;;19.50;99.90;;;;;;5092131;28;20014;-67
2023/04/02 05:42:51;;;;;;;;;;;19.50;99.90;;;;;;5091539;28;20777;-66
2023/04/02 05:45:35;;;;;;;;;;;19.80;99.90;;;;;;5077879;28;19908;-71
2023/04/02 05:48:04;;;;;;;;;;;19.90;99.90;;;;;;5084695;28;20010;-66
2023/04/02 05:50:39;;;;;;;;;;;20.00;99.90;;;;;;5096576;28;19914;-75
2023/04/02 05:53:24;;;;;;;;;;;20.00;99.90;;;;;;5095867;28;19986;-66
2023/04/02 05:55:54;;;;;;;;;;;20.20;99.90;;;;;;5090645;27;19982;-66
2023/04/02 05:58:27;;;;;;;;;;;20.40;99.90;;;;;;5095120;28;19919;-76
2023/04/02 06:00:53;;;;;;;;;;;20.60;99.90;;;;;;5096070;28;20253;-64
2023/04/02 06:03:43;;;;;;;;;;;21.00;99.90;;;;;;5081146;28;19919;-77
2023/04/02 06:06:22;;;;;;;;;;;21.50;99.90;;;;;;5075799;28;20380;-76
2023/04/02 06:08:57;;;;;;;;;;;22.00;99.90;;;;;;5095965;28;20724;-75
2023/04/02 06:11:30;;;;;;;;;;;22.40;99.90;;;;;;5089973;28;19957;-77
2023/04/02 06:13:57;;;;;;;;;;;22.50;99.90;;;;;;5067979;28;19949;-75
2023/04/02 06:16:25;;;;;;;;;;;23.10;99.90;;;;;;5077300;28;19999;-75
2023/04/02 06:18:52;;;;;;;;;;;24.60;99.90;;;;;;5090434;27;19919;-75
2023/04/02 06:21:19;;;;;;;;;;;26.50;99.90;;;;;;5096045;28;19911;-76
2023/04/02 06:23:52;;;;;;;;;;;28.20;99.90;;;;;;5097408;28;20371;-76
2023/04/02 06:26:22;;;;;;;;;;;29.80;98.00;;;;;;5092858;28;20438;-76
2023/04/02 06:29:10;;;;;;;;;;;30.80;95.90;;;;;;5097564;28;19923;-74
2023/04/02 06:31:57;;;;;;;;;;;30.90;93.90;;;;;;5097441;28;20368;-74
2023/04/02 06:34:25;;;;;;;;;;;30.40;94.80;;;;;;5093695;28;20300;-75
2023/04/02 06:36:54;;;;;;;;;;;29.40;95.40;;;;;;5096965;28;19930;-73
2023/04/02 06:39:22;;;;;;;;;;;28.10;95.30;;;;;;5074040;28;19920;-73
2023/04/02 06:42:01;;;;;;;;;;;27.10;97.40;;;;;;5097060;28;19939;-74
2023/04/02 06:44:30;;;;;;;;;;;26.30;99.40;;;;;;5082840;28;20409;-72
2023/04/02 06:46:59;;;;;;;;;;;25.50;99.90;;;;;;5086493;28;19941;-70
2023/04/02 06:49:44;;;;;;;;;;;24.90;99.90;;;;;;5090685;28;20010;-73
2023/04/02 06:52:18;;;;;;;;;;;24.00;99.90;;;;;;5093078;28;20044;-70
2023/04/02 06:54:46;;;;;;;;;;;23.40;99.90;;;;;;5094407;28;19911;-74
2023/04/02 06:57:13;;;;;;;;;;;22.60;99.90;;;;;;5084013;28;19919;-72
2023/04/02 06:59:39;;;;;;;;;;;22.20;99.90;;;;;;5095283;28;19912;-74
2023/04/02 07:02:21;;;;;;;;;;;21.80;99.90;;;;;;5074929;28;20049;-71
2023/04/02 07:04:48;;;;;;;;;;;21.60;99.90;;;;;;5076305;28;19914;-72
2023/04/02 07:07:14;;;;;;;;;;;21.30;99.90;;;;;;5077942;28;19912;-73
2023/04/02 07:09:41;;;;;;;;;;;20.90;99.90;;;;;;5097018;28;19918;-72
2023/04/02 07:12:13;;;;;;;;;;;20.70;99.90;;;;;;5096361;28;19947;-78
2023/04/02 07:14:40;;;;;;;;;;;20.40;99.90;;;;;;5093417;28;19916;-71
2023/04/02 07:17:07;;;;;;;;;;;20.20;99.90;;;;;;5087005;28;19930;-73
2023/04/02 07:19:33;;;;;;;;;;;20.20;99.90;;;;;;5096555;28;19955;-74
2023/04/02 07:22:00;;;;;;;;;;;20.00;99.90;;;;;;5097360;28;19923;-76
2023/04/02 07:24:27;;;;;;;;;;;19.90;99.90;;;;;;5096697;28;20002;-75
2023/04/02 07:26:53;;;;;;;;;;;19.80;99.90;;;;;;5097894;28;20372;-79
2023/04/02 07:29:20;;;;;;;;;;;19.70;99.90;;;;;;5093960;28;20366;-75
2023/04/02 07:31:47;;;;;;;;;;;19.60;99.90;;;;;;5098140;28;19908;-74
2023/04/02 07:34:13;;;;;;;;;;;19.40;99.90;;;;;;5096077;28;19919;-74
2023/04/02 07:36:40;;;;;;;;;;;19.30;99.90;;;;;;5098445;28;19923;-74
2023/04/02 07:39:09;;;;;;;;;;;19.20;99.90;;;;;;5100514;28;20303;-74
2023/04/02 07:41:55;;;;;;;;;;;19.10;99.90;;;;;;5100237;28;19964;-74
2023/04/02 07:44:22;;;;;;;;;;;19.10;99.90;;;;;;5094396;28;20439;-75
2023/04/02 07:46:49;;;;;;;;;;;19.00;99.90;;;;;;5087355;28;19911;-73
2023/04/02 07:49:15;;;;;;;;;;;19.10;99.90;;;;;;5097204;28;19919;-74
2023/04/02 07:51:42;;;;;;;;;;;19.00;99.90;;;;;;5099707;28;19918;-75
2023/04/02 07:54:09;;;;;;;;;;;18.90;99.90;;;;;;5099044;28;19955;-74
2023/04/02 07:56:37;;;;;;;;;;;18.80;99.90;;;;;;5097659;28;20170;-73
2023/04/02 07:59:03;;;;;;;;;;;18.80;99.90;;;;;;5101680;27;20006;-75
2023/04/02 08:01:34;;;;;;;;;;;18.70;99.90;;;;;;5068829;28;19942;-73
2023/04/02 08:04:01;;;;;;;;;;;18.60;99.90;;;;;;5091380;27;20003;-72
2023/04/02 08:06:28;;;;;;;;;;;18.50;99.90;;;;;;5088901;28;20429;-71
2023/04/02 08:08:56;;;;;;;;;;;18.40;99.90;;;;;;5090809;28;19916;-74
2023/04/02 08:11:22;;;;;;;;;;;18.30;99.90;;;;;;5098642;28;19959;-73
2023/04/02 08:13:49;;;;;;;;;;;18.20;99.90;;;;;;5095147;28;19924;-72
2023/04/02 08:16:16;;;;;;;;;;;18.10;99.90;;;;;;5087995;28;19916;-71
2023/04/02 08:18:44;;;;;;;;;;;18.00;99.90;;;;;;5086602;28;20001;-72
2023/04/02 08:21:10;;;;;;;;;;;18.00;99.90;;;;;;5086576;28;19912;-72
2023/04/02 08:23:37;;;;;;;;;;;18.00;99.90;;;;;;5088170;28;19911;-70
2023/04/02 08:26:04;;;;;;;;;;;17.90;99.90;;;;;;5092051;28;19964;-70
2023/04/02 08:28:31;;;;;;;;;;;17.90;99.90;;;;;;5094681;28;19937;-70
2023/04/02 08:30:58;;;;;;;;;;;17.90;99.90;;;;;;5085269;28;19912;-74
2023/04/02 08:33:25;;;;;;;;;;;17.90;99.90;;;;;;5071969;28;20068;-75
2023/04/02 08:35:52;;;;;;;;;;;17.90;99.90;;;;;;5062776;28;19919;-74
2023/04/02 08:38:20;;;;;;;;;;;18.30;99.90;;;;;;5073954;28;20020;-70
2023/04/02 08:40:49;;;;;;;;;;;17.90;99.90;;;;;;5091919;28;19923;-77
2023/04/02 08:43:27;;;;;;;;;;;17.90;99.90;;;;;;5092716;28;19912;-75
2023/04/02 08:45:58;;;;;;;;;;;17.90;99.90;;;;;;5088019;28;19919;-76
2023/04/02 08:48:24;;;;;;;;;;;17.90;99.90;;;;;;5092175;28;19965;-77
2023/04/02 08:50:51;;;;;;;;;;;17.80;99.90;;;;;;5097610;28;19919;-76
2023/04/02 08:53:27;;;;;;;;;;;17.80;99.90;;;;;;5085405;28;19923;-75
2023/04/02 08:55:54;;;;;;;;;;;17.80;99.90;;;;;;5098022;28;19959;-77
2023/04/02 08:58:42;;;;;;;;;;;17.70;99.90;;;;;;5090091;28;20493;-75
2023/04/02 09:01:26;;;;;;;;;;;17.70;99.90;;;;;;5096260;28;19916;-75
2023/04/02 09:03:54;;;;;;;;;;;17.60;99.90;;;;;;5092518;28;20014;-75
2023/04/02 09:06:22;;;;;;;;;;;17.50;99.90;;;;;;5096062;28;19919;-76
2023/04/02 09:08:50;;;;;;;;;;;17.50;99.90;;;;;;5092332;28;19954;-76
2023/04/02 09:11:35;;;;;;;;;;;17.40;99.90;;;;;;5088545;28;20340;-73
2023/04/02 09:14:03;;;;;;;;;;;17.50;99.90;;;;;;5086911;28;19912;-71
2023/04/02 09:16:44;;;;;;;;;;;17.50;99.90;;;;;;5098191;28;19908;-72
2023/04/02 09:19:16;;;;;;;;;;;17.50;99.90;;;;;;5090098;28;19982;-70
2023/04/02 09:21:52;;;;;;;;;;;17.50;99.90;;;;;;5083088;28;20404;-75
2023/04/02 09:24:18;;;;;;;;;;;17.50;99.90;;;;;;5087267;28;20296;-70
2023/04/02 09:26:45;;;;;;;;;;;17.50;99.90;;;;;;5076858;28;20004;-73
2023/04/02 09:29:12;;;;;;;;;;;17.60;99.90;;;;;;5091420;28;20679;-73
2023/04/02 09:31:42;;;;;;;;;;;17.50;99.90;;;;;;5083794;28;19979;-71
2023/04/02 09:34:40;;;;;;;;;;;17.50;99.90;;;;;;5086977;28;20379;-72
2023/04/02 09:37:15;;;;;;;;;;;17.50;99.90;;;;;;5061545;28;19912;-72
2023/04/02 09:39:42;;;;;;;;;;;17.40;99.90;;;;;;5095672;28;19924;-72
2023/04/02 09:42:27;;;;;;;;;;;17.40;99.90;;;;;;5084928;28;20010;-71
2023/04/02 09:45:11;;;;;;;;;;;17.40;99.90;;;;;;5077752;28;20102;-73
2023/04/02 09:47:38;;;;;;;;;;;17.40;99.90;;;;;;5061094;28;19927;-73
2023/04/02 09:50:20;;;;;;;;;;;17.40;99.90;;;;;;5084346;28;19908;-73
2023/04/02 09:52:47;;;;;;;;;;;17.40;99.90;;;;;;5077923;28;19908;-73
2023/04/02 09:55:14;;;;;;;;;;;17.40;99.90;;;;;;5058131;28;20868;-72
2023/04/02 09:57:42;;;;;;;;;;;17.40;99.90;;;;;;5097599;28;20604;-72
2023/04/02 10:00:12;;;;;;;;;;;17.30;99.90;;;;;;5090464;28;20007;-71
2023/04/02 10:02:40;;;;;;;;;;;17.40;99.90;;;;;;5097103;28;19927;-76
2023/04/02 10:05:17;;;;;;;;;;;17.40;99.90;;;;;;5087734;28;19912;-73
2023/04/02 10:07:46;;;;;;;;;;;17.30;99.90;;;;;;5084480;28;20049;-74
2023/04/02 10:10:21;;;;;;;;;;;17.30;99.90;;;;;;5096094;28;19914;-76
2023/04/02 10:12:52;;;;;;;;;;;17.30;99.90;;;;;;5089898;28;19915;-73
2023/04/02 10:15:27;;;;;;;;;;;17.30;99.90;;;;;;5096564;28;19908;-74
2023/04/02 10:18:02;;;;;;;;;;;17.20;99.90;;;;;;5097227;28;19953;-72
2023/04/02 10:20:32;;;;;;;;;;;17.20;99.90;;;;;;5094537;28;19923;-72
2023/04/02 10:22:59;;;;;;;;;;;17.30;99.90;;;;;;5097024;28;19912;-70
2023/04/02 10:25:28;;;;;;;;;;;17.20;99.90;;;;;;5089992;28;20085;-73
2023/04/02 10:27:55;;;;;;;;;;;17.20;99.90;;;;;;5078021;28;19924;-75
2023/04/02 10:30:41;;;;;;;;;;;17.20;99.90;;;;;;5084541;28;19918;-75
2023/04/02 10:33:20;;;;;;;;;;;17.20;99.90;;;;;;5095650;28;19912;-73
2023/04/02 10:35:52;;;;;;;;;;;17.10;99.90;;;;;;5078058;28;19935;-71
2023/04/02 10:38:37;;;;;;;;;;;17.10;99.90;;;;;;5088717;28;19908;-74
2023/04/02 10:41:22;;;;;;;;;;;17.10;99.90;;;;;;5096779;28;20391;-71
2023/04/02 10:43:55;;;;;;;;;;;17.10;99.90;;;;;;5093875;28;19935;-71
2023/04/02 10:46:42;;;;;;;;;;;17.10;99.90;;;;;;5091904;28;19912;-71
2023/04/02 10:49:16;;;;;;;;;;;17.00;99.90;;;;;;5084716;28;19924;-73
2023/04/02 10:51:53;;;;;;;;;;;17.20;99.90;;;;;;5085638;28;19914;-69
2023/04/02 10:54:28;;;;;;;;;;;17.10;99.90;;;;;;5076824;28;20252;-72
2023/04/02 10:56:56;;;;;;;;;;;17.20;99.90;;;;;;5077033;28;19907;-70
2023/04/02 10:59:28;;;;;;;;;;;17.20;99.90;;;;;;5077128;28;20013;-72
2023/04/02 11:01:56;;;;;;;;;;;17.20;99.90;;;;;;5091002;28;19958;-73
2023/04/02 11:04:26;;;;;;;;;;;17.20;99.90;;;;;;5085336;28;19951;-72
2023/04/02 11:06:55;;;;;;;;;;;17.20;99.90;;;;;;5097000;28;19912;-71
2023/04/02 11:09:25;;;;;;;;;;;17.20;99.90;;;;;;5096696;28;19916;-72
2023/04/02 11:11:56;;;;;;;;;;;17.20;99.90;;;;;;5100007;28;20299;-70
2023/04/02 11:14:27;;;;;;;;;;;17.20;99.90;;;;;;5101032;28;19919;-74
2023/04/02 11:16:57;;;;;;;;;;;17.10;99.90;;;;;;5101017;28;19908;-73
2023/04/02 11:19:24;;;;;;;;;;;17.20;99.90;;;;;;5100907;28;19961;-75
2023/04/02 11:22:09;;;;;;;;;;;17.20;99.90;;;;;;5093858;28;19916;-71
2023/04/02 11:24:45;;;;;;;;;;;17.20;99.90;;;;;;5100446;28;19914;-73
2023/04/02 11:27:15;;;;;;;;;;;17.20;99.90;;;;;;5101026;28;19912;-71
2023/04/02 11:29:41;;;;;;;;;;;17.30;99.90;;;;;;5096935;28;20020;-74
2023/04/02 11:32:25;;;;;;;;;;;17.30;99.90;;;;;;5080843;28;19963;-71
2023/04/02 11:34:55;;;;;;;;;;;17.30;99.90;;;;;;5062575;28;19931;-74
2023/04/02 11:37:37;;;;;;;;;;;17.30;99.90;;;;;;5062416;28;19916;-71
2023/04/02 11:40:13;;;;;;;;;;;17.30;99.90;;;;;;5082497;28;19920;-74
2023/04/02 11:42:41;;;;;;;;;;;17.40;99.90;;;;;;5100155;28;19923;-74
2023/04/02 11:45:23;;;;;;;;;;;17.40;99.90;;;;;;5101432;28;20280;-72
2023/04/02 11:48:06;;;;;;;;;;;17.40;99.90;;;;;;5096205;28;20192;-70
2023/04/02 11:50:33;;;;;;;;;;;17.50;99.90;;;;;;5089912;28;19912;-72
2023/04/02 11:53:00;;;;;;;;;;;17.40;99.90;;;;;;5080129;28;20379;-72
2023/04/02 11:55:29;;;;;;;;;;;17.30;99.90;;;;;;5079443;28;20002;-73
2023/04/02 11:58:14;;;;;;;;;;;17.40;99.90;;;;;;5086872;28;19974;-72
2023/04/02 12:00:59;;;;;;;;;;;17.30;99.90;;;;;;5097007;28;19916;-70
2023/04/02 12:03:28;;;;;;;;;;;17.30;99.90;;;;;;5088384;28;19908;-72
2023/04/02 12:06:05;;;;;;;;;;;17.20;99.90;;;;;;5086641;28;20375;-73
2023/04/02 12:08:46;;;;;;;;;;;17.20;99.90;;;;;;5079866;28;20312;-72
2023/04/02 12:11:13;;;;;;;;;;;17.10;99.90;;;;;;5100269;28;19911;-73
2023/04/02 12:13:40;;;;;;;;;;;17.10;99.90;;;;;;5100007;28;20398;-72
2023/04/02 12:16:12;;;;;;;;;;;17.00;99.90;;;;;;5099989;28;19953;-74
2023/04/02 12:18:43;;;;;;;;;;;17.00;99.90;;;;;;5087796;28;19908;-69
2023/04/02 12:21:14;;;;;;;;;;;17.00;99.90;;;;;;5079640;28;20380;-75
2023/04/02 12:23:44;;;;;;;;;;;16.90;99.90;;;;;;5078810;28;19908;-73
2023/04/02 12:26:35;;;;;;;;;;;16.90;99.90;;;;;;5086936;28;20665;-70
2023/04/02 12:29:20;;;;;;;;;;;16.90;99.90;;;;;;5100562;28;19919;-72
2023/04/02 12:31:47;;;;;;;;;;;16.90;99.90;;;;;;5099621;28;19950;-73
2023/04/02 12:34:16;;;;;;;;;;;17.00;99.90;;;;;;5095737;28;19908;-74
2023/04/02 12:37:03;;;;;;;;;;;16.90;99.90;;;;;;5085273;28;19912;-69
2023/04/02 12:39:31;;;;;;;;;;;16.90;99.90;;;;;;5079794;28;20391;-71
2023/04/02 12:41:58;;;;;;;;;;;16.90;99.90;;;;;;5093133;28;19962;-71
2023/04/02 12:44:26;;;;;;;;;;;16.80;99.90;;;;;;5088593;28;19912;-73
2023/04/02 12:46:53;;;;;;;;;;;16.80;99.90;;;;;;5077892;28;20341;-71
2023/04/02 12:49:20;;;;;;;;;;;16.80;99.90;;;;;;5061868;28;19927;-75
2023/04/02 12:51:47;;;;;;;;;;;16.70;99.90;;;;;;5078665;28;20422;-71
2023/04/02 12:54:16;;;;;;;;;;;16.70;99.90;;;;;;5086519;28;20546;-70
2023/04/02 12:56:43;;;;;;;;;;;16.70;99.90;;;;;;5098115;28;19908;-71
2023/04/02 12:59:26;;;;;;;;;;;16.70;99.90;;;;;;5084012;28;20373;-70
2023/04/02 13:02:00;;;;;;;;;;;16.70;99.90;;;;;;5077972;28;19908;-70
2023/04/02 13:04:27;;;;;;;;;;;16.70;99.90;;;;;;5079326;28;20000;-70
2023/04/02 13:06:54;;;;;;;;;;;16.70;99.90;;;;;;5060260;28;19915;-70
2023/04/02 13:09:30;;;;;;;;;;;16.70;99.90;;;;;;5079304;28;19916;-73
2023/04/02 13:11:57;;;;;;;;;;;16.70;99.90;;;;;;5077914;28;19908;-70
2023/04/02 13:14:24;;;;;;;;;;;16.70;99.90;;;;;;5079696;28;19908;-70
2023/04/02 13:16:51;;;;;;;;;;;16.80;99.90;;;;;;5077710;28;19926;-68
2023/04/02 13:19:17;;;;;;;;;;;16.70;99.90;;;;;;5095521;28;20576;-70
2023/04/02 13:21:45;;;;;;;;;;;16.70;99.90;;;;;;5098312;28;19953;-72
2023/04/02 13:24:22;;;;;;;;;;;16.80;99.90;;;;;;5097761;28;20329;-74
2023/04/02 13:26:49;;;;;;;;;;;16.80;99.90;;;;;;5096942;28;19912;-70
2023/04/02 13:29:16;;;;;;;;;;;16.80;99.90;;;;;;5098718;28;19923;-69
2023/04/02 13:31:43;;;;;;;;;;;16.80;99.90;;;;;;5098995;28;19908;-71
2023/04/02 13:34:09;;;;;;;;;;;16.80;99.90;;;;;;5077594;28;20023;-70
2023/04/02 13:36:36;;;;;;;;;;;16.80;99.90;;;;;;5060524;28;20349;-71
2023/04/02 13:39:03;;;;;;;;;;;16.80;99.90;;;;;;5095804;28;19912;-70
2023/04/02 13:41:31;;;;;;;;;;;16.80;99.90;;;;;;5081310;28;19973;-72
2023/04/02 13:43:59;;;;;;;;;;;16.70;99.90;;;;;;5065388;28;19908;-71
2023/04/02 13:46:29;;;;;;;;;;;16.80;99.90;;;;;;5078846;28;19956;-68
2023/04/02 13:48:56;;;;;;;;;;;16.70;99.90;;;;;;5077511;28;19920;-71
2023/04/02 13:51:46;;;;;;;;;;;16.70;99.90;;;;;;5078334;28;19918;-69
2023/04/02 13:54:21;;;;;;;;;;;16.70;99.90;;;;;;5074908;28;20433;-71
2023/04/02 13:56:48;;;;;;;;;;;16.70;99.90;;;;;;5094468;28;19943;-70
2023/04/02 13:59:15;;;;;;;;;;;16.70;99.90;;;;;;5087785;28;19962;-71
2023/04/02 14:01:43;;;;;;;;;;;16.60;99.90;;;;;;5068077;28;20269;-70
2023/04/02 14:04:12;;;;;;;;;;;16.70;99.90;;;;;;5095025;28;19911;-71
2023/04/02 14:06:51;;;;;;;;;;;16.80;99.90;;;;;;5077923;28;20394;-74
2023/04/02 14:09:30;;;;;;;;;;;16.80;99.90;;;;;;5093891;28;19916;-74
2023/04/02 14:12:03;;;;;;;;;;;16.80;99.90;;;;;;5097144;28;20702;-71
2023/04/02 14:14:30;;;;;;;;;;;16.80;99.90;;;;;;5097519;28;20009;-70
2023/04/02 14:17:02;;;;;;;;;;;16.70;99.90;;;;;;5096713;28;20321;-75
2023/04/02 14:19:37;;;;;;;;;;;16.70;99.90;;;;;;5098647;28;19915;-76
2023/04/02 14:22:10;;;;;;;;;;;16.80;99.90;;;;;;5077647;28;19972;-73
2023/04/02 14:24:56;;;;;;;;;;;16.80;99.90;;;;;;5078038;28;19917;-73
2023/04/02 14:27:29;;;;;;;;;;;16.70;99.90;;;;;;5046353;28;19959;-75
2023/04/02 14:30:14;;;;;;;;;;;16.70;99.90;;;;;;5077310;28;19916;-71
2023/04/02 14:32:47;;;;;;;;;;;16.60;99.90;;;;;;5079582;28;19961;-74
2023/04/02 14:35:16;;;;;;;;;;;16.50;99.90;;;;;;5080733;28;21257;-75
2023/04/02 14:37:52;;;;;;;;;;;16.60;99.90;;;;;;5090151;28;19915;-70
2023/04/02 14:40:34;;;;;;;;;;;16.60;99.90;;;;;;5080644;28;19928;-69
2023/04/02 14:43:03;;;;;;;;;;;16.60;99.90;;;;;;5076062;28;20002;-74
2023/04/02 14:45:38;;;;;;;;;;;16.60;99.90;;;;;;5077882;28;19981;-69
2023/04/02 14:48:13;;;;;;;;;;;16.50;99.90;;;;;;5084591;28;19920;-71